sensor_id;sensor_type;location;lat;lon;timestamp;temperature;humidity
32600;DHT22;19277;51.778;7.912;2023-04-03T00:02:05;21.10;67.80
32600;DHT22;19277;51.778;7.912;2023-04-03T00:04:31;21.10;67.90
32600;DHT22;19277;51.778;7.912;2023-04-03T00:06:57;21.10;67.90
32600;DHT22;19277;51.778;7.912;2023-04-03T00:09:22;21.10;67.90
32600;DHT22;19277;51.778;7.912;2023-04-03T00:11:48;21.10;67.90
32600;DHT22;19277;51.778;7.912;2023-04-03T00:14:13;21.10;68.00
32600;DHT22;19277;51.778;7.912;2023-04-03T00:16:39;21.10;68.00
32600;DHT22;19277;51.778;7.912;2023-04-03T00:19:05;21.10;68.10
32600;DHT22;19277;51.778;7.912;2023-04-03T00:21:31;21.10;68.10
32600;DHT22;19277;51.778;7.912;2023-04-03T00:23:56;21.10;68.10
32600;DHT22;19277;51.778;7.912;2023-04-03T00:26:22;21.10;68.10
32600;DHT22;19277;51.778;7.912;2023-04-03T00:28:48;21.10;68.10
32600;DHT22;19277;51.778;7.912;2023-04-03T00:31:17;21.10;68.10
32600;DHT22;19277;51.778;7.912;2023-04-03T00:33:43;21.10;68.10
32600;DHT22;19277;51.778;7.912;2023-04-03T00:36:10;21.10;68.20
32600;DHT22;19277;51.778;7.912;2023-04-03T00:38:37;21.10;68.30
32600;DHT22;19277;51.778;7.912;2023-04-03T00:41:02;21.10;68.30
32600;DHT22;19277;51.778;7.912;2023-04-03T00:43:28;21.10;68.40
32600;DHT22;19277;51.778;7.912;2023-04-03T00:45:56;21.10;68.50
32600;DHT22;19277;51.778;7.912;2023-04-03T00:48:41;21.00;68.50
32600;DHT22;19277;51.778;7.912;2023-04-03T00:51:09;21.00;68.60
32600;DHT22;19277;51.778;7.912;2023-04-03T00:53:43;21.00;68.60
32600;DHT22;19277;51.778;7.912;2023-04-03T00:56:13;21.00;68.70
32600;DHT22;19277;51.778;7.912;2023-04-03T00:58:46;21.00;68.70
32600;DHT22;19277;51.778;7.912;2023-04-03T01:01:16;21.00;68.80
32600;DHT22;19277;51.778;7.912;2023-04-03T01:03:44;20.90;68.80
32600;DHT22;19277;51.778;7.912;2023-04-03T01:06:18;20.90;68.90
32600;DHT22;19277;51.778;7.912;2023-04-03T01:08:48;20.90;68.90
32600;DHT22;19277;51.778;7.912;2023-04-03T01:11:15;20.90;69.10
32600;DHT22;19277;51.778;7.912;2023-04-03T01:13:40;20.90;69.00
32600;DHT22;19277;51.778;7.912;2023-04-03T01:16:07;20.90;69.10
32600;DHT22;19277;51.778;7.912;2023-04-03T01:18:33;20.90;69.20
32600;DHT22;19277;51.778;7.912;2023-04-03T01:24:04;20.90;69.20
32600;DHT22;19277;51.778;7.912;2023-04-03T01:26:33;20.90;69.30
32600;DHT22;19277;51.778;7.912;2023-04-03T01:28:59;20.90;69.40
32600;DHT22;19277;51.778;7.912;2023-04-03T01:31:29;20.90;69.40
32600;DHT22;19277;51.778;7.912;2023-04-03T01:33:57;20.90;69.30
32600;DHT22;19277;51.778;7.912;2023-04-03T01:36:26;20.80;69.30
32600;DHT22;19277;51.778;7.912;2023-04-03T01:38:52;20.80;69.40
32600;DHT22;19277;51.778;7.912;2023-04-03T01:41:19;20.90;69.50
32600;DHT22;19277;51.778;7.912;2023-04-03T01:43:46;20.90;69.60
32600;DHT22;19277;51.778;7.912;2023-04-03T01:46:12;20.90;69.60
32600;DHT22;19277;51.778;7.912;2023-04-03T01:48:37;20.90;69.60
32600;DHT22;19277;51.778;7.912;2023-04-03T01:51:03;20.90;69.60
32600;DHT22;19277;51.778;7.912;2023-04-03T01:53:29;20.80;69.60
32600;DHT22;19277;51.778;7.912;2023-04-03T01:55:54;20.80;69.70
32600;DHT22;19277;51.778;7.912;2023-04-03T01:58:20;20.80;69.80
32600;DHT22;19277;51.778;7.912;2023-04-03T02:00:45;20.80;69.80
32600;DHT22;19277;51.778;7.912;2023-04-03T02:03:11;20.80;69.90
32600;DHT22;19277;51.778;7.912;2023-04-03T02:05:37;20.80;70.00
32600;DHT22;19277;51.778;7.912;2023-04-03T02:08:03;20.80;70.10
32600;DHT22;19277;51.778;7.912;2023-04-03T02:10:29;20.80;70.20
32600;DHT22;19277;51.778;7.912;2023-04-03T02:12:54;20.80;70.30
32600;DHT22;19277;51.778;7.912;2023-04-03T02:15:20;20.80;70.30
32600;DHT22;19277;51.778;7.912;2023-04-03T02:17:46;20.80;70.20
32600;DHT22;19277;51.778;7.912;2023-04-03T02:20:11;20.80;70.30
32600;DHT22;19277;51.778;7.912;2023-04-03T02:22:37;20.80;70.50
32600;DHT22;19277;51.778;7.912;2023-04-03T02:25:03;20.80;70.70
32600;DHT22;19277;51.778;7.912;2023-04-03T02:27:29;20.80;70.90
32600;DHT22;19277;51.778;7.912;2023-04-03T02:29:55;20.80;70.90
32600;DHT22;19277;51.778;7.912;2023-04-03T02:32:20;20.80;71.00
32600;DHT22;19277;51.778;7.912;2023-04-03T02:34:46;20.70;70.80
32600;DHT22;19277;51.778;7.912;2023-04-03T02:37:12;20.70;70.90
32600;DHT22;19277;51.778;7.912;2023-04-03T02:39:37;20.70;70.80
32600;DHT22;19277;51.778;7.912;2023-04-03T02:42:03;20.70;70.80
32600;DHT22;19277;51.778;7.912;2023-04-03T02:44:28;20.70;71.00
32600;DHT22;19277;51.778;7.912;2023-04-03T02:46:54;20.70;71.30
32600;DHT22;19277;51.778;7.912;2023-04-03T02:49:20;20.70;71.20
32600;DHT22;19277;51.778;7.912;2023-04-03T02:51:45;20.70;71.20
32600;DHT22;19277;51.778;7.912;2023-04-03T02:54:11;20.70;71.40
32600;DHT22;19277;51.778;7.912;2023-04-03T02:56:37;20.70;71.60
32600;DHT22;19277;51.778;7.912;2023-04-03T02:59:03;20.70;71.70
32600;DHT22;19277;51.778;7.912;2023-04-03T03:01:28;20.80;71.60
32600;DHT22;19277;51.778;7.912;2023-04-03T03:03:57;20.80;71.50
32600;DHT22;19277;51.778;7.912;2023-04-03T03:06:23;20.80;71.50
32600;DHT22;19277;51.778;7.912;2023-04-03T03:08:48;20.80;71.40
32600;DHT22;19277;51.778;7.912;2023-04-03T03:11:14;20.80;71.30
32600;DHT22;19277;51.778;7.912;2023-04-03T03:13:40;20.80;71.20
32600;DHT22;19277;51.778;7.912;2023-04-03T03:16:06;20.80;71.20
32600;DHT22;19277;51.778;7.912;2023-04-03T03:18:32;20.80;71.20
32600;DHT22;19277;51.778;7.912;2023-04-03T03:20:59;20.80;71.30
32600;DHT22;19277;51.778;7.912;2023-04-03T03:23:26;20.90;71.30
32600;DHT22;19277;51.778;7.912;2023-04-03T03:26:01;20.90;71.20
32600;DHT22;19277;51.778;7.912;2023-04-03T03:28:27;20.90;71.20
32600;DHT22;19277;51.778;7.912;2023-04-03T03:30:53;20.90;71.20
32600;DHT22;19277;51.778;7.912;2023-04-03T03:33:18;20.90;71.20
32600;DHT22;19277;51.778;7.912;2023-04-03T03:35:44;20.90;71.20
32600;DHT22;19277;51.778;7.912;2023-04-03T03:38:10;20.90;71.20
32600;DHT22;19277;51.778;7.912;2023-04-03T03:40:36;20.90;71.30
32600;DHT22;19277;51.778;7.912;2023-04-03T03:43:01;20.90;71.30
32600;DHT22;19277;51.778;7.912;2023-04-03T03:45:27;20.90;71.30
32600;DHT22;19277;51.778;7.912;2023-04-03T03:47:53;20.90;71.40
32600;DHT22;19277;51.778;7.912;2023-04-03T03:50:18;20.80;71.30
32600;DHT22;19277;51.778;7.912;2023-04-03T03:52:44;20.90;71.30
32600;DHT22;19277;51.778;7.912;2023-04-03T03:55:10;20.80;71.30
32600;DHT22;19277;51.778;7.912;2023-04-03T03:57:36;20.90;71.40
32600;DHT22;19277;51.778;7.912;2023-04-03T04:00:02;20.90;71.40
32600;DHT22;19277;51.778;7.912;2023-04-03T04:02:28;20.90;71.30
32600;DHT22;19277;51.778;7.912;2023-04-03T04:04:54;20.80;71.30
32600;DHT22;19277;51.778;7.912;2023-04-03T04:07:19;20.80;71.30
32600;DHT22;19277;51.778;7.912;2023-04-03T04:09:45;20.80;71.40
32600;DHT22;19277;51.778;7.912;2023-04-03T04:12:11;20.90;71.50
32600;DHT22;19277;51.778;7.912;2023-04-03T04:14:36;20.90;71.50
32600;DHT22;19277;51.778;7.912;2023-04-03T04:17:02;20.90;71.60
32600;DHT22;19277;51.778;7.912;2023-04-03T04:19:28;20.90;71.60
32600;DHT22;19277;51.778;7.912;2023-04-03T04:21:54;20.90;71.60
32600;DHT22;19277;51.778;7.912;2023-04-03T04:24:19;20.90;71.90
32600;DHT22;19277;51.778;7.912;2023-04-03T04:26:45;21.00;72.00
32600;DHT22;19277;51.778;7.912;2023-04-03T04:29:11;21.00;71.90
32600;DHT22;19277;51.778;7.912;2023-04-03T04:31:36;21.00;71.80
32600;DHT22;19277;51.778;7.912;2023-04-03T04:34:02;21.00;71.80
32600;DHT22;19277;51.778;7.912;2023-04-03T04:36:27;21.00;72.00
32600;DHT22;19277;51.778;7.912;2023-04-03T04:38:53;21.00;72.00
32600;DHT22;19277;51.778;7.912;2023-04-03T04:41:22;21.00;72.10
32600;DHT22;19277;51.778;7.912;2023-04-03T04:43:49;21.00;72.20
32600;DHT22;19277;51.778;7.912;2023-04-03T04:46:15;21.00;72.30
32600;DHT22;19277;51.778;7.912;2023-04-03T04:48:41;21.00;72.50
32600;DHT22;19277;51.778;7.912;2023-04-03T04:51:06;21.00;72.70
32600;DHT22;19277;51.778;7.912;2023-04-03T04:53:32;21.00;72.70
32600;DHT22;19277;51.778;7.912;2023-04-03T04:55:58;21.00;72.90
32600;DHT22;19277;51.778;7.912;2023-04-03T04:58:24;21.00;73.00
32600;DHT22;19277;51.778;7.912;2023-04-03T05:00:49;21.10;73.20
32600;DHT22;19277;51.778;7.912;2023-04-03T05:03:15;21.10;73.30
32600;DHT22;19277;51.778;7.912;2023-04-03T05:05:41;21.10;73.50
32600;DHT22;19277;51.778;7.912;2023-04-03T05:08:07;21.10;73.60
32600;DHT22;19277;51.778;7.912;2023-04-03T05:10:34;21.10;73.70
32600;DHT22;19277;51.778;7.912;2023-04-03T05:13:00;21.10;73.70
32600;DHT22;19277;51.778;7.912;2023-04-03T05:15:25;21.10;73.90
32600;DHT22;19277;51.778;7.912;2023-04-03T05:17:51;21.10;73.90
32600;DHT22;19277;51.778;7.912;2023-04-03T05:20:17;21.10;74.00
32600;DHT22;19277;51.778;7.912;2023-04-03T05:22:42;21.10;74.40
32600;DHT22;19277;51.778;7.912;2023-04-03T05:25:08;21.20;74.20
32600;DHT22;19277;51.778;7.912;2023-04-03T05:27:34;21.30;74.00
32600;DHT22;19277;51.778;7.912;2023-04-03T05:30:00;21.40;73.80
32600;DHT22;19277;51.778;7.912;2023-04-03T05:32:25;21.50;73.50
32600;DHT22;19277;51.778;7.912;2023-04-03T05:34:53;21.70;73.50
32600;DHT22;19277;51.778;7.912;2023-04-03T05:37:18;21.80;73.10
32600;DHT22;19277;51.778;7.912;2023-04-03T05:39:44;21.90;72.90
32600;DHT22;19277;51.778;7.912;2023-04-03T05:42:09;22.00;72.70
32600;DHT22;19277;51.778;7.912;2023-04-03T05:44:37;22.10;72.50
32600;DHT22;19277;51.778;7.912;2023-04-03T05:47:02;22.10;72.10
32600;DHT22;19277;51.778;7.912;2023-04-03T05:49:28;22.20;71.80
32600;DHT22;19277;51.778;7.912;2023-04-03T05:51:54;22.30;71.50
32600;DHT22;19277;51.778;7.912;2023-04-03T05:54:25;22.40;71.30
32600;DHT22;19277;51.778;7.912;2023-04-03T05:56:51;22.40;71.20
32600;DHT22;19277;51.778;7.912;2023-04-03T05:59:17;22.50;70.70
32600;DHT22;19277;51.778;7.912;2023-04-03T06:01:43;22.60;70.80
32600;DHT22;19277;51.778;7.912;2023-04-03T06:04:09;22.70;70.60
32600;DHT22;19277;51.778;7.912;2023-04-03T06:06:55;22.70;70.50
32600;DHT22;19277;51.778;7.912;2023-04-03T06:09:23;22.80;70.00
32600;DHT22;19277;51.778;7.912;2023-04-03T06:11:50;22.80;69.80
32600;DHT22;19277;51.778;7.912;2023-04-03T06:14:17;22.90;69.60
32600;DHT22;19277;51.778;7.912;2023-04-03T06:16:42;22.90;69.50
32600;DHT22;19277;51.778;7.912;2023-04-03T06:19:09;22.90;69.50
32600;DHT22;19277;51.778;7.912;2023-04-03T06:21:35;23.00;69.20
32600;DHT22;19277;51.778;7.912;2023-04-03T06:24:01;23.00;69.30
32600;DHT22;19277;51.778;7.912;2023-04-03T06:26:27;23.00;69.10
32600;DHT22;19277;51.778;7.912;2023-04-03T06:28:53;23.10;69.20
32600;DHT22;19277;51.778;7.912;2023-04-03T06:31:19;23.10;68.80
32600;DHT22;19277;51.778;7.912;2023-04-03T06:33:45;23.10;68.90
32600;DHT22;19277;51.778;7.912;2023-04-03T06:36:11;23.20;68.70
32600;DHT22;19277;51.778;7.912;2023-04-03T06:38:37;23.20;68.60
32600;DHT22;19277;51.778;7.912;2023-04-03T06:41:03;23.30;68.80
32600;DHT22;19277;51.778;7.912;2023-04-03T06:43:29;23.30;68.80
32600;DHT22;19277;51.778;7.912;2023-04-03T06:45:56;23.30;68.60
32600;DHT22;19277;51.778;7.912;2023-04-03T06:48:22;23.40;68.60
32600;DHT22;19277;51.778;7.912;2023-04-03T06:50:47;23.40;68.80
32600;DHT22;19277;51.778;7.912;2023-04-03T06:53:13;23.40;68.50
32600;DHT22;19277;51.778;7.912;2023-04-03T06:55:38;23.40;68.30
32600;DHT22;19277;51.778;7.912;2023-04-03T06:58:04;23.40;68.60
32600;DHT22;19277;51.778;7.912;2023-04-03T07:00:30;23.40;68.40
32600;DHT22;19277;51.778;7.912;2023-04-03T07:02:56;23.30;68.20
32600;DHT22;19277;51.778;7.912;2023-04-03T07:05:23;23.40;68.40
32600;DHT22;19277;51.778;7.912;2023-04-03T07:07:49;23.40;68.50
32600;DHT22;19277;51.778;7.912;2023-04-03T07:10:15;23.40;68.30
32600;DHT22;19277;51.778;7.912;2023-04-03T07:12:41;23.30;68.20
32600;DHT22;19277;51.778;7.912;2023-04-03T07:15:08;23.30;68.50
32600;DHT22;19277;51.778;7.912;2023-04-03T07:17:34;23.30;68.90
32600;DHT22;19277;51.778;7.912;2023-04-03T07:19:59;23.30;69.00
32600;DHT22;19277;51.778;7.912;2023-04-03T07:22:25;23.30;68.70
32600;DHT22;19277;51.778;7.912;2023-04-03T07:24:51;23.30;68.60
32600;DHT22;19277;51.778;7.912;2023-04-03T07:27:16;23.20;68.60
32600;DHT22;19277;51.778;7.912;2023-04-03T07:29:43;23.20;68.60
32600;DHT22;19277;51.778;7.912;2023-04-03T07:32:09;23.20;68.60
32600;DHT22;19277;51.778;7.912;2023-04-03T07:34:36;23.20;68.60
32600;DHT22;19277;51.778;7.912;2023-04-03T07:37:01;21.70;43.20
32600;DHT22;19277;51.778;7.912;2023-04-03T07:39:28;20.60;54.70
32600;DHT22;19277;51.778;7.912;2023-04-03T07:41:54;20.20;55.30
32600;DHT22;19277;51.778;7.912;2023-04-03T07:44:20;20.10;55.40
32600;DHT22;19277;51.778;7.912;2023-04-03T07:46:46;20.10;55.60
32600;DHT22;19277;51.778;7.912;2023-04-03T07:49:13;20.00;55.40
32600;DHT22;19277;51.778;7.912;2023-04-03T07:51:39;19.90;53.30
32600;DHT22;19277;51.778;7.912;2023-04-03T07:54:05;19.80;55.30
32600;DHT22;19277;51.778;7.912;2023-04-03T07:56:31;19.70;56.10
32600;DHT22;19277;51.778;7.912;2023-04-03T07:58:57;19.70;56.40
32600;DHT22;19277;51.778;7.912;2023-04-03T08:01:22;19.70;56.00
32600;DHT22;19277;51.778;7.912;2023-04-03T08:03:48;19.50;55.30
32600;DHT22;19277;51.778;7.912;2023-04-03T08:06:14;19.40;55.60
32600;DHT22;19277;51.778;7.912;2023-04-03T08:08:40;19.40;57.40
32600;DHT22;19277;51.778;7.912;2023-04-03T08:11:06;19.30;55.50
32600;DHT22;19277;51.778;7.912;2023-04-03T08:13:33;19.20;56.30
32600;DHT22;19277;51.778;7.912;2023-04-03T08:16:11;19.10;58.50
32600;DHT22;19277;51.778;7.912;2023-04-03T08:18:37;19.10;55.50
32600;DHT22;19277;51.778;7.912;2023-04-03T08:21:09;19.00;56.80
32600;DHT22;19277;51.778;7.912;2023-04-03T08:23:35;18.90;57.10
32600;DHT22;19277;51.778;7.912;2023-04-03T08:26:09;18.90;58.20
32600;DHT22;19277;51.778;7.912;2023-04-03T08:28:35;18.90;56.80
32600;DHT22;19277;51.778;7.912;2023-04-03T08:31:05;18.80;53.90
32600;DHT22;19277;51.778;7.912;2023-04-03T08:33:32;18.70;55.30
32600;DHT22;19277;51.778;7.912;2023-04-03T08:35:57;18.60;55.40
32600;DHT22;19277;51.778;7.912;2023-04-03T08:38:23;18.50;57.00
32600;DHT22;19277;51.778;7.912;2023-04-03T08:41:01;18.50;57.00
32600;DHT22;19277;51.778;7.912;2023-04-03T08:43:56;18.60;58.70
32600;DHT22;19277;51.778;7.912;2023-04-03T08:46:23;18.60;53.40
32600;DHT22;19277;51.778;7.912;2023-04-03T08:48:51;18.40;57.70
32600;DHT22;19277;51.778;7.912;2023-04-03T08:51:20;18.50;58.10
32600;DHT22;19277;51.778;7.912;2023-04-03T08:54:00;18.50;56.00
32600;DHT22;19277;51.778;7.912;2023-04-03T08:56:27;18.50;55.60
32600;DHT22;19277;51.778;7.912;2023-04-03T08:59:00;18.50;56.70
32600;DHT22;19277;51.778;7.912;2023-04-03T09:01:34;18.40;57.20
32600;DHT22;19277;51.778;7.912;2023-04-03T09:04:10;18.40;54.00
32600;DHT22;19277;51.778;7.912;2023-04-03T09:06:38;18.30;52.70
32600;DHT22;19277;51.778;7.912;2023-04-03T09:09:12;18.30;54.10
32600;DHT22;19277;51.778;7.912;2023-04-03T09:11:53;18.40;55.40
32600;DHT22;19277;51.778;7.912;2023-04-03T09:17:04;18.20;53.80
32600;DHT22;19277;51.778;7.912;2023-04-03T09:19:47;18.30;54.90
32600;DHT22;19277;51.778;7.912;2023-04-03T09:22:20;18.30;53.20
32600;DHT22;19277;51.778;7.912;2023-04-03T09:24:52;18.10;52.30
32600;DHT22;19277;51.778;7.912;2023-04-03T09:27:21;18.00;52.70
32600;DHT22;19277;51.778;7.912;2023-04-03T09:29:47;17.90;53.70
32600;DHT22;19277;51.778;7.912;2023-04-03T09:34:53;17.80;54.10
32600;DHT22;19277;51.778;7.912;2023-04-03T09:37:41;17.80;53.30
32600;DHT22;19277;51.778;7.912;2023-04-03T09:42:57;18.10;52.10
32600;DHT22;19277;51.778;7.912;2023-04-03T09:45:34;18.10;52.90
32600;DHT22;19277;51.778;7.912;2023-04-03T09:50:30;18.10;53.40
32600;DHT22;19277;51.778;7.912;2023-04-03T09:52:56;18.20;53.00
32600;DHT22;19277;51.778;7.912;2023-04-03T09:55:23;18.20;53.20
32600;DHT22;19277;51.778;7.912;2023-04-03T09:57:54;18.30;51.60
32600;DHT22;19277;51.778;7.912;2023-04-03T10:00:21;18.10;51.10
32600;DHT22;19277;51.778;7.912;2023-04-03T10:02:50;18.20;53.10
32600;DHT22;19277;51.778;7.912;2023-04-03T10:08:23;18.20;52.20
32600;DHT22;19277;51.778;7.912;2023-04-03T10:11:07;18.30;51.40
32600;DHT22;19277;51.778;7.912;2023-04-03T10:13:33;18.40;51.60
32600;DHT22;19277;51.778;7.912;2023-04-03T10:16:10;18.40;50.40
32600;DHT22;19277;51.778;7.912;2023-04-03T10:18:49;18.20;49.80
32600;DHT22;19277;51.778;7.912;2023-04-03T10:21:40;18.00;47.70
32600;DHT22;19277;51.778;7.912;2023-04-03T10:27:03;17.80;48.70
32600;DHT22;19277;51.778;7.912;2023-04-03T10:38:54;18.50;57.50
32600;DHT22;19277;51.778;7.912;2023-04-03T10:41:49;18.80;57.50
32600;DHT22;19277;51.778;7.912;2023-04-03T10:46:53;19.50;58.10
32600;DHT22;19277;51.778;7.912;2023-04-03T10:50:15;19.70;58.40
32600;DHT22;19277;51.778;7.912;2023-04-03T10:56:02;20.00;58.90
32600;DHT22;19277;51.778;7.912;2023-04-03T11:01:33;20.30;59.60
32600;DHT22;19277;51.778;7.912;2023-04-03T11:04:00;20.40;59.90
32600;DHT22;19277;51.778;7.912;2023-04-03T11:06:45;20.40;60.00
32600;DHT22;19277;51.778;7.912;2023-04-03T11:09:18;20.50;60.20
32600;DHT22;19277;51.778;7.912;2023-04-03T11:11:45;20.60;60.20
32600;DHT22;19277;51.778;7.912;2023-04-03T11:14:29;20.70;60.20
32600;DHT22;19277;51.778;7.912;2023-04-03T11:19:50;20.80;60.30
32600;DHT22;19277;51.778;7.912;2023-04-03T11:22:33;20.90;60.30
32600;DHT22;19277;51.778;7.912;2023-04-03T11:27:43;21.00;60.40
32600;DHT22;19277;51.778;7.912;2023-04-03T11:30:20;21.00;60.30
32600;DHT22;19277;51.778;7.912;2023-04-03T11:33:16;21.00;60.30
32600;DHT22;19277;51.778;7.912;2023-04-03T11:35:47;21.10;60.80
32600;DHT22;19277;51.778;7.912;2023-04-03T11:38:23;21.10;60.90
32600;DHT22;19277;51.778;7.912;2023-04-03T11:40:52;21.20;60.60
32600;DHT22;19277;51.778;7.912;2023-04-03T11:45:59;21.20;60.70
32600;DHT22;19277;51.778;7.912;2023-04-03T11:51:37;21.30;61.10
32600;DHT22;19277;51.778;7.912;2023-04-03T11:53:48;21.30;61.00
32600;DHT22;19277;51.778;7.912;2023-04-03T12:04:11;21.40;61.50
32600;DHT22;19277;51.778;7.912;2023-04-03T12:11:48;21.40;61.90
32600;DHT22;19277;51.778;7.912;2023-04-03T12:14:15;21.40;61.30
32600;DHT22;19277;51.778;7.912;2023-04-03T12:16:43;21.40;61.50
32600;DHT22;19277;51.778;7.912;2023-04-03T12:29:34;21.60;61.90
32600;DHT22;19277;51.778;7.912;2023-04-03T12:42:59;21.50;62.30
32600;DHT22;19277;51.778;7.912;2023-04-03T12:45:27;21.60;62.40
32600;DHT22;19277;51.778;7.912;2023-04-03T12:47:54;21.60;63.20
32600;DHT22;19277;51.778;7.912;2023-04-03T12:50:25;21.60;63.30
32600;DHT22;19277;51.778;7.912;2023-04-03T12:53:05;21.60;63.30
32600;DHT22;19277;51.778;7.912;2023-04-03T12:55:31;21.70;63.90
32600;DHT22;19277;51.778;7.912;2023-04-03T12:57:57;21.70;63.40
32600;DHT22;19277;51.778;7.912;2023-04-03T13:00:38;21.70;63.50
32600;DHT22;19277;51.778;7.912;2023-04-03T13:03:06;21.70;63.50
32600;DHT22;19277;51.778;7.912;2023-04-03T13:05:32;21.70;63.20
32600;DHT22;19277;51.778;7.912;2023-04-03T13:08:05;21.70;62.90
32600;DHT22;19277;51.778;7.912;2023-04-03T13:10:49;21.80;63.20
32600;DHT22;19277;51.778;7.912;2023-04-03T13:13:16;21.70;63.10
32600;DHT22;19277;51.778;7.912;2023-04-03T13:15:47;21.70;63.40
32600;DHT22;19277;51.778;7.912;2023-04-03T13:18:40;21.70;63.60
32600;DHT22;19277;51.778;7.912;2023-04-03T13:21:18;21.80;63.30
32600;DHT22;19277;51.778;7.912;2023-04-03T13:23:47;21.80;63.70
32600;DHT22;19277;51.778;7.912;2023-04-03T13:26:16;21.80;63.80
32600;DHT22;19277;51.778;7.912;2023-04-03T13:28:44;21.90;63.90
32600;DHT22;19277;51.778;7.912;2023-04-03T13:33:55;22.00;63.60
32600;DHT22;19277;51.778;7.912;2023-04-03T13:36:45;22.00;63.70
32600;DHT22;19277;51.778;7.912;2023-04-03T13:41:44;22.00;63.60
32600;DHT22;19277;51.778;7.912;2023-04-03T13:46:52;22.00;63.10
32600;DHT22;19277;51.778;7.912;2023-04-03T13:51:51;22.00;63.50
32600;DHT22;19277;51.778;7.912;2023-04-03T13:54:38;22.00;63.50
32600;DHT22;19277;51.778;7.912;2023-04-03T13:57:15;22.00;62.80
32600;DHT22;19277;51.778;7.912;2023-04-03T13:59:41;22.00;62.90
32600;DHT22;19277;51.778;7.912;2023-04-03T14:07:02;22.00;63.00
32600;DHT22;19277;51.778;7.912;2023-04-03T14:09:28;22.10;62.60
32600;DHT22;19277;51.778;7.912;2023-04-03T14:11:57;22.00;61.10
32600;DHT22;19277;51.778;7.912;2023-04-03T14:14:28;22.00;60.80
32600;DHT22;19277;51.778;7.912;2023-04-03T14:16:58;22.00;62.20
32600;DHT22;19277;51.778;7.912;2023-04-03T14:19:35;22.00;62.30
32600;DHT22;19277;51.778;7.912;2023-04-03T14:22:28;22.00;62.50
32600;DHT22;19277;51.778;7.912;2023-04-03T14:24:53;21.90;55.50
32600;DHT22;19277;51.778;7.912;2023-04-03T14:27:33;19.30;45.80
32600;DHT22;19277;51.778;7.912;2023-04-03T14:30:00;17.40;44.50
32600;DHT22;19277;51.778;7.912;2023-04-03T14:32:28;16.10;46.10
32600;DHT22;19277;51.778;7.912;2023-04-03T14:34:54;15.30;45.70
32600;DHT22;19277;51.778;7.912;2023-04-03T14:37:23;14.70;46.60
32600;DHT22;19277;51.778;7.912;2023-04-03T14:39:51;14.40;47.50
32600;DHT22;19277;51.778;7.912;2023-04-03T14:42:24;14.40;46.40
32600;DHT22;19277;51.778;7.912;2023-04-03T14:44:50;14.20;47.90
32600;DHT22;19277;51.778;7.912;2023-04-03T14:47:20;13.90;45.70
32600;DHT22;19277;51.778;7.912;2023-04-03T14:49:47;13.90;46.10
32600;DHT22;19277;51.778;7.912;2023-04-03T14:52:28;13.90;45.80
32600;DHT22;19277;51.778;7.912;2023-04-03T14:54:55;13.90;46.10
32600;DHT22;19277;51.778;7.912;2023-04-03T14:57:23;13.70;45.90
32600;DHT22;19277;51.778;7.912;2023-04-03T14:59:50;13.40;46.00
32600;DHT22;19277;51.778;7.912;2023-04-03T15:02:29;13.50;46.70
32600;DHT22;19277;51.778;7.912;2023-04-03T15:04:55;13.60;47.50
32600;DHT22;19277;51.778;7.912;2023-04-03T15:07:23;13.60;45.40
32600;DHT22;19277;51.778;7.912;2023-04-03T15:09:49;13.50;46.10
32600;DHT22;19277;51.778;7.912;2023-04-03T15:12:15;13.20;46.30
32600;DHT22;19277;51.778;7.912;2023-04-03T15:14:41;13.10;45.70
32600;DHT22;19277;51.778;7.912;2023-04-03T15:17:15;12.90;45.70
32600;DHT22;19277;51.778;7.912;2023-04-03T15:19:41;12.90;47.60
32600;DHT22;19277;51.778;7.912;2023-04-03T15:22:13;13.00;46.60
32600;DHT22;19277;51.778;7.912;2023-04-03T15:24:39;13.10;47.00
32600;DHT22;19277;51.778;7.912;2023-04-03T15:27:05;13.10;48.40
32600;DHT22;19277;51.778;7.912;2023-04-03T15:29:30;13.60;54.50
32600;DHT22;19277;51.778;7.912;2023-04-03T15:31:56;14.40;54.30
32600;DHT22;19277;51.778;7.912;2023-04-03T15:34:21;15.20;54.20
32600;DHT22;19277;51.778;7.912;2023-04-03T15:36:47;15.90;53.90
32600;DHT22;19277;51.778;7.912;2023-04-03T15:39:13;16.50;53.70
32600;DHT22;19277;51.778;7.912;2023-04-03T15:41:38;17.00;53.70
32600;DHT22;19277;51.778;7.912;2023-04-03T15:44:04;17.40;53.80
32600;DHT22;19277;51.778;7.912;2023-04-03T15:46:30;17.70;53.70
32600;DHT22;19277;51.778;7.912;2023-04-03T15:48:55;18.00;53.90
32600;DHT22;19277;51.778;7.912;2023-04-03T15:51:21;18.20;54.20
32600;DHT22;19277;51.778;7.912;2023-04-03T15:53:46;18.40;54.40
32600;DHT22;19277;51.778;7.912;2023-04-03T15:56:12;18.60;54.80
32600;DHT22;19277;51.778;7.912;2023-04-03T15:58:37;18.70;55.00
32600;DHT22;19277;51.778;7.912;2023-04-03T16:01:03;18.90;55.10
32600;DHT22;19277;51.778;7.912;2023-04-03T16:03:29;19.00;55.50
32600;DHT22;19277;51.778;7.912;2023-04-03T16:05:55;19.10;55.70
32600;DHT22;19277;51.778;7.912;2023-04-03T16:08:20;19.20;55.80
32600;DHT22;19277;51.778;7.912;2023-04-03T16:10:46;19.30;55.90
32600;DHT22;19277;51.778;7.912;2023-04-03T16:13:13;19.30;56.00
32600;DHT22;19277;51.778;7.912;2023-04-03T16:15:39;19.40;56.30
32600;DHT22;19277;51.778;7.912;2023-04-03T16:18:05;19.50;56.30
32600;DHT22;19277;51.778;7.912;2023-04-03T16:20:31;19.50;56.30
32600;DHT22;19277;51.778;7.912;2023-04-03T16:22:58;19.60;56.40
32600;DHT22;19277;51.778;7.912;2023-04-03T16:25:24;19.70;56.60
32600;DHT22;19277;51.778;7.912;2023-04-03T16:27:50;19.70;57.00
32600;DHT22;19277;51.778;7.912;2023-04-03T16:30:15;19.70;57.30
32600;DHT22;19277;51.778;7.912;2023-04-03T16:32:41;19.80;57.60
32600;DHT22;19277;51.778;7.912;2023-04-03T16:35:07;19.70;56.40
32600;DHT22;19277;51.778;7.912;2023-04-03T16:37:35;19.70;58.00
32600;DHT22;19277;51.778;7.912;2023-04-03T16:40:02;19.80;58.30
32600;DHT22;19277;51.778;7.912;2023-04-03T16:42:28;19.80;58.30
32600;DHT22;19277;51.778;7.912;2023-04-03T16:44:53;19.90;58.50
32600;DHT22;19277;51.778;7.912;2023-04-03T16:47:19;19.90;58.30
32600;DHT22;19277;51.778;7.912;2023-04-03T16:49:46;20.00;58.50
32600;DHT22;19277;51.778;7.912;2023-04-03T16:52:13;20.00;58.60
32600;DHT22;19277;51.778;7.912;2023-04-03T16:54:39;20.00;58.50
32600;DHT22;19277;51.778;7.912;2023-04-03T16:57:05;20.10;58.70
32600;DHT22;19277;51.778;7.912;2023-04-03T16:59:31;20.10;59.00
32600;DHT22;19277;51.778;7.912;2023-04-03T17:01:58;20.10;59.20
32600;DHT22;19277;51.778;7.912;2023-04-03T17:04:24;20.10;59.20
32600;DHT22;19277;51.778;7.912;2023-04-03T17:06:51;20.10;59.50
32600;DHT22;19277;51.778;7.912;2023-04-03T17:09:17;20.20;59.60
32600;DHT22;19277;51.778;7.912;2023-04-03T17:11:43;20.20;59.60
32600;DHT22;19277;51.778;7.912;2023-04-03T17:14:11;20.20;59.80
32600;DHT22;19277;51.778;7.912;2023-04-03T17:16:38;20.20;59.90